createdAt,value
2019-05-14T00:00:09.683Z,59.88
2019-05-14T00:00:41.784Z,61.21
2019-05-14T00:01:11.790Z,61.88
2019-05-14T00:01:43.198Z,61.04
2019-05-14T00:02:12.147Z,60.25
2019-05-14T00:02:41.755Z,60.12
2019-05-14T00:03:11.699Z,59.81
2019-05-14T00:03:41.768Z,59.67
2019-05-14T00:04:11.746Z,60.42
2019-05-14T00:04:41.997Z,61.51
2019-05-14T00:05:11.998Z,60.68
2019-05-14T00:05:39.746Z,60.88
2019-05-14T00:06:11.695Z,60.57
2019-05-14T00:06:41.973Z,60.75
2019-05-14T00:07:11.848Z,60.27
2019-05-14T00:07:41.753Z,59.98
2019-05-14T00:08:11.691Z,60.47
2019-05-14T00:08:42.009Z,60.32
2019-05-14T00:09:11.738Z,60.26
2019-05-14T00:09:41.757Z,59.86
2019-05-14T00:10:13.151Z,60.39
2019-05-14T00:10:41.755Z,59.54
2019-05-14T00:11:09.682Z,60.40
2019-05-14T00:11:42.169Z,60.24
2019-05-14T00:12:13.163Z,59.91
2019-05-14T00:12:41.986Z,59.94
2019-05-14T00:13:11.854Z,60.07
2019-05-14T00:13:41.751Z,59.68
2019-05-14T00:14:11.826Z,59.50
2019-05-14T00:14:43.680Z,60.55
2019-05-14T00:15:11.704Z,59.57
2019-05-14T00:15:41.756Z,59.58
2019-05-14T00:16:11.920Z,60.58
2019-05-14T00:16:42.149Z,60.25
2019-05-14T00:17:11.703Z,59.76
2019-05-14T00:17:41.899Z,60.15
2019-05-14T00:18:11.855Z,60.42
2019-05-14T00:18:42.104Z,58.07
2019-05-14T00:19:11.702Z,58.06
2019-05-14T00:19:41.946Z,59.91
2019-05-14T00:20:13.091Z,60.32
2019-05-14T00:20:43.117Z,58.83
2019-05-14T00:21:12.010Z,60.44
2019-05-14T00:21:42.091Z,60.98
2019-05-14T00:22:11.855Z,59.08
2019-05-14T00:22:43.129Z,58.90
2019-05-14T00:23:11.897Z,60.31
2019-05-14T00:23:41.880Z,60.86
2019-05-14T00:24:11.694Z,60.48
2019-05-14T00:24:41.985Z,61.14
2019-05-14T00:25:11.856Z,60.56
2019-05-14T00:25:42.011Z,61.06
2019-05-14T00:26:11.965Z,60.45
2019-05-14T00:26:42.268Z,61.06
2019-05-14T00:27:11.793Z,61.83
2019-05-14T00:27:41.761Z,60.60
2019-05-14T00:28:11.856Z,59.86
2019-05-14T00:28:42.033Z,60.33
2019-05-14T00:29:11.724Z,60.94
2019-05-14T00:29:42.056Z,60.19
2019-05-14T00:30:11.693Z,60.39
2019-05-14T00:30:42.200Z,59.96
2019-05-14T00:31:13.239Z,60.14
2019-05-14T00:31:41.773Z,59.63
2019-05-14T00:32:11.743Z,61.01
2019-05-14T00:32:41.778Z,61.03
2019-05-14T00:33:13.246Z,59.70
2019-05-14T00:33:42.067Z,60.35
2019-05-14T00:34:11.698Z,60.48
2019-05-14T00:34:42.124Z,61.25
2019-05-14T00:35:11.708Z,59.80
2019-05-14T00:35:41.758Z,60.42
2019-05-14T00:36:11.699Z,59.64
2019-05-14T00:36:41.958Z,59.74
2019-05-14T00:37:11.777Z,59.01
2019-05-14T00:37:41.773Z,59.10
2019-05-14T00:38:11.950Z,60.35
2019-05-14T00:38:42.059Z,59.19
2019-05-14T00:39:11.700Z,59.49
2019-05-14T00:39:41.902Z,59.23
2019-05-14T00:40:11.917Z,59.41
2019-05-14T00:40:42.032Z,60.11
2019-05-14T00:41:11.701Z,60.60
2019-05-14T00:41:43.345Z,60.50
2019-05-14T00:42:12.205Z,61.25
2019-05-14T00:42:41.772Z,60.33
2019-05-14T00:43:11.701Z,59.42
2019-05-14T00:43:43.360Z,60.66
2019-05-14T00:44:09.685Z,60.36
2019-05-14T00:44:53.392Z,60.68
2019-05-14T00:45:11.767Z,59.80
2019-05-14T00:45:41.918Z,58.97
2019-05-14T00:46:11.945Z,58.72
2019-05-14T00:46:41.761Z,59.17
2019-05-14T00:47:11.701Z,60.60
2019-05-14T00:47:42.055Z,60.80
2019-05-14T00:48:09.689Z,58.25
2019-05-14T00:48:42.158Z,58.86
2019-05-14T00:49:11.932Z,58.54
2019-05-14T00:49:42.202Z,59.05
2019-05-14T00:50:11.701Z,60.25
2019-05-14T00:50:41.976Z,60.54
2019-05-14T00:51:11.719Z,59.00
2019-05-14T00:51:41.765Z,60.69
2019-05-14T00:52:13.425Z,60.04
2019-05-14T00:52:42.181Z,59.92
2019-05-14T00:53:11.863Z,59.82
2019-05-14T00:53:41.936Z,59.37
2019-05-14T00:54:14.439Z,59.68
2019-05-14T00:54:41.978Z,59.45
2019-05-14T00:55:11.900Z,60.07
2019-05-14T00:55:41.914Z,59.79
2019-05-14T00:56:11.701Z,58.70
2019-05-14T00:56:41.895Z,58.81
2019-05-14T00:57:12.092Z,59.90
2019-05-14T00:57:42.260Z,60.54
2019-05-14T00:58:11.703Z,61.05
2019-05-14T00:58:41.761Z,60.56
2019-05-14T00:59:11.708Z,59.86
2019-05-14T00:59:41.961Z,60.80
2019-05-14T01:00:11.828Z,60.18
2019-05-14T01:00:41.916Z,60.06
2019-05-14T01:01:11.980Z,60.09
2019-05-14T01:01:42.248Z,60.69
2019-05-14T01:02:11.765Z,61.56
2019-05-14T01:02:43.430Z,61.19
2019-05-14T01:03:11.706Z,60.66
2019-05-14T01:03:41.767Z,60.55
2019-05-14T01:04:11.897Z,59.55
2019-05-14T01:04:43.244Z,59.87
2019-05-14T01:05:12.157Z,59.67
2019-05-14T01:05:41.768Z,59.87
2019-05-14T01:06:11.714Z,59.69
2019-05-14T01:06:42.166Z,60.58
2019-05-14T01:07:12.081Z,60.29
2019-05-14T01:07:42.056Z,60.59
2019-05-14T01:08:11.656Z,60.00
2019-05-14T01:08:41.770Z,60.56
2019-05-14T01:09:11.713Z,60.83
2019-05-14T01:09:42.205Z,61.54
2019-05-14T01:10:11.770Z,61.81
2019-05-14T01:10:41.935Z,60.76
2019-05-14T01:11:11.951Z,60.25
2019-05-14T01:11:42.077Z,59.95
2019-05-14T01:12:11.903Z,59.90
2019-05-14T01:12:41.770Z,60.41
2019-05-14T01:13:13.156Z,60.50
2019-05-14T01:13:41.878Z,60.54
2019-05-14T01:14:12.012Z,61.28
2019-05-14T01:14:42.105Z,60.83
2019-05-14T01:15:18.314Z,59.86
2019-05-14T01:15:41.767Z,59.55
2019-05-14T01:16:12.093Z,59.89
2019-05-14T01:16:42.228Z,60.01
2019-05-14T01:17:11.704Z,60.72
2019-05-14T01:17:41.974Z,60.18
2019-05-14T01:18:11.707Z,59.54
2019-05-14T01:18:41.912Z,59.55
2019-05-14T01:19:09.703Z,59.51
2019-05-14T01:19:42.567Z,59.87
2019-05-14T01:20:12.136Z,59.51
2019-05-14T01:20:41.768Z,59.73
2019-05-14T01:21:11.859Z,61.40
2019-05-14T01:21:41.892Z,60.55
2019-05-14T01:22:12.204Z,61.11
2019-05-14T01:22:42.027Z,60.76
2019-05-14T01:23:11.711Z,60.36
2019-05-14T01:23:43.259Z,60.30
2019-05-14T01:24:09.702Z,59.86
2019-05-14T01:24:41.970Z,59.77
2019-05-14T01:25:11.808Z,60.22
2019-05-14T01:25:43.363Z,60.47
2019-05-14T01:26:11.709Z,60.74
2019-05-14T01:26:41.814Z,61.40
2019-05-14T01:27:12.075Z,60.16
2019-05-14T01:27:41.772Z,59.39
2019-05-14T01:28:11.709Z,59.46
2019-05-14T01:28:41.794Z,59.61
2019-05-14T01:29:12.039Z,59.55
2019-05-14T01:29:42.391Z,59.61
2019-05-14T01:30:09.699Z,59.49
2019-05-14T01:30:41.776Z,59.54
2019-05-14T01:31:14.570Z,59.62
2019-05-14T01:31:41.966Z,59.47
2019-05-14T01:32:11.877Z,59.30
2019-05-14T01:32:42.115Z,59.58
2019-05-14T01:33:11.948Z,59.84
2019-05-14T01:33:41.770Z,60.30
2019-05-14T01:34:13.124Z,60.62
2019-05-14T01:34:42.169Z,60.59
2019-05-14T01:35:12.120Z,60.47
2019-05-14T01:35:41.874Z,60.43
2019-05-14T01:36:13.433Z,60.68
2019-05-14T01:36:41.773Z,61.96
2019-05-14T01:37:11.595Z,61.04
2019-05-14T01:37:41.890Z,62.02
2019-05-14T01:38:11.726Z,61.29
2019-05-14T01:38:41.973Z,61.84
2019-05-14T01:39:12.168Z,61.90
2019-05-14T01:39:42.153Z,60.81
2019-05-14T01:40:11.718Z,60.79
2019-05-14T01:40:42.030Z,61.20
2019-05-14T01:41:11.922Z,61.26
2019-05-14T01:41:41.853Z,60.90
2019-05-14T01:42:12.161Z,60.73
2019-05-14T01:42:41.881Z,61.06
2019-05-14T01:43:11.715Z,60.62
2019-05-14T01:43:42.071Z,60.56
2019-05-14T01:44:12.025Z,60.75
2019-05-14T01:44:43.222Z,61.89
2019-05-14T01:45:23.744Z,61.28
2019-05-14T01:45:41.858Z,60.91
2019-05-14T01:46:11.973Z,61.88
2019-05-14T01:46:43.200Z,61.47
2019-05-14T01:47:09.700Z,61.72
2019-05-14T01:47:41.789Z,63.01
2019-05-14T01:48:11.838Z,62.79
2019-05-14T01:48:41.914Z,62.81
2019-05-14T01:49:11.849Z,61.85
2019-05-14T01:49:42.453Z,62.58
2019-05-14T01:50:11.716Z,63.15
2019-05-14T01:50:41.770Z,63.25
2019-05-14T01:51:11.944Z,62.72
2019-05-14T01:51:42.295Z,62.30
2019-05-14T01:52:11.718Z,62.56
2019-05-14T01:52:41.834Z,62.15
2019-05-14T01:53:11.719Z,61.74
2019-05-14T01:53:41.889Z,61.82
2019-05-14T01:54:12.010Z,63.14
2019-05-14T01:54:42.358Z,63.92
2019-05-14T01:55:13.166Z,63.40
2019-05-14T01:55:41.779Z,62.90
2019-05-14T01:56:12.057Z,62.02
2019-05-14T01:56:41.795Z,61.73
2019-05-14T01:57:13.135Z,62.25
2019-05-14T01:57:39.771Z,61.96
2019-05-14T01:58:11.718Z,61.68
2019-05-14T01:58:41.913Z,61.70
2019-05-14T01:59:11.900Z,61.45
2019-05-14T01:59:42.545Z,62.50
2019-05-14T02:00:11.712Z,63.41
2019-05-14T02:00:41.800Z,62.76
2019-05-14T02:01:11.854Z,62.26
2019-05-14T02:01:41.856Z,62.43
2019-05-14T02:02:11.847Z,63.25
2019-05-14T02:02:41.935Z,63.72
2019-05-14T02:03:11.963Z,62.65
2019-05-14T02:03:41.782Z,62.74
2019-05-14T02:04:11.591Z,63.24
2019-05-14T02:04:42.643Z,62.95
2019-05-14T02:05:12.163Z,62.52
2019-05-14T02:05:43.237Z,62.64
2019-05-14T02:06:11.986Z,63.15
2019-05-14T02:06:41.780Z,62.69
2019-05-14T02:07:11.832Z,62.51
2019-05-14T02:07:43.255Z,63.09
2019-05-14T02:08:11.954Z,62.83
2019-05-14T02:08:41.786Z,62.62
2019-05-14T02:09:11.726Z,63.59
2019-05-14T02:09:42.170Z,63.13
2019-05-14T02:10:11.835Z,63.11
2019-05-14T02:10:42.004Z,62.86
2019-05-14T02:11:11.884Z,63.57
2019-05-14T02:11:41.845Z,64.13
2019-05-14T02:12:11.943Z,64.20
2019-05-14T02:12:42.295Z,63.00
2019-05-14T02:13:12.088Z,62.94
2019-05-14T02:13:41.778Z,63.57
2019-05-14T02:14:11.864Z,62.26
2019-05-14T02:14:42.340Z,63.15
2019-05-14T02:15:11.858Z,63.11
2019-05-14T02:15:42.931Z,63.58
2019-05-14T02:16:13.358Z,63.25
2019-05-14T02:16:42.346Z,62.94
2019-05-14T02:17:12.162Z,63.27
2019-05-14T02:17:41.784Z,63.09
2019-05-14T02:18:13.364Z,63.11
2019-05-14T02:18:41.794Z,64.18
2019-05-14T02:19:11.760Z,63.99
2019-05-14T02:19:42.275Z,62.67
2019-05-14T02:20:09.711Z,62.89
2019-05-14T02:20:41.782Z,63.10
2019-05-14T02:21:11.906Z,62.65
2019-05-14T02:21:42.272Z,62.15
2019-05-14T02:22:11.720Z,61.80
2019-05-14T02:22:41.890Z,61.93
2019-05-14T02:23:11.817Z,62.88
2019-05-14T02:23:41.869Z,63.72
2019-05-14T02:24:11.724Z,64.33
2019-05-14T02:24:42.016Z,65.28
2019-05-14T02:25:11.820Z,63.72
2019-05-14T02:25:41.780Z,62.71
2019-05-14T02:26:11.727Z,62.04
2019-05-14T02:26:43.127Z,62.03
2019-05-14T02:27:12.060Z,61.94
2019-05-14T02:27:41.795Z,62.05
2019-05-14T02:28:11.734Z,62.61
2019-05-14T02:28:43.136Z,62.55
2019-05-14T02:29:09.711Z,62.43
2019-05-14T02:29:41.883Z,63.13
2019-05-14T02:30:09.727Z,64.73
2019-05-14T02:30:51.325Z,64.37
2019-05-14T02:31:10.741Z,64.88
2019-05-14T02:31:39.772Z,63.44
2019-05-14T02:32:11.729Z,62.94
2019-05-14T02:32:40.999Z,62.43
2019-05-14T02:33:09.714Z,62.58
2019-05-14T02:33:40.782Z,62.44
2019-05-14T02:34:10.716Z,62.26
2019-05-14T02:34:40.849Z,62.20
2019-05-14T02:35:10.781Z,62.10
2019-05-14T02:35:40.815Z,62.18
2019-05-14T02:36:10.805Z,62.57
2019-05-14T02:36:40.784Z,62.59
2019-05-14T02:37:13.248Z,61.69
2019-05-14T02:37:40.787Z,61.44
2019-05-14T02:38:10.721Z,61.87
2019-05-14T02:38:39.783Z,62.22
2019-05-14T02:39:13.265Z,61.91
2019-05-14T02:39:41.799Z,62.00
2019-05-14T02:40:10.735Z,61.62
2019-05-14T02:40:40.782Z,61.37
2019-05-14T02:41:10.730Z,61.16
2019-05-14T02:41:39.776Z,61.23
2019-05-14T02:42:10.739Z,61.25
2019-05-14T02:42:40.790Z,61.62
2019-05-14T02:43:10.735Z,61.57
2019-05-14T02:43:41.789Z,61.62
2019-05-14T02:44:10.722Z,61.60
2019-05-14T02:44:41.787Z,61.93
2019-05-14T02:45:09.723Z,62.45
2019-05-14T02:46:00.390Z,62.78
2019-05-14T02:46:16.860Z,62.89
2019-05-14T02:46:40.844Z,63.22
2019-05-14T02:47:10.730Z,63.02
2019-05-14T02:47:43.385Z,62.48
2019-05-14T02:48:10.721Z,62.22
2019-05-14T02:48:40.783Z,63.98
2019-05-14T02:49:11.730Z,63.01
2019-05-14T02:49:43.381Z,62.30
2019-05-14T02:50:10.728Z,61.99
2019-05-14T02:50:40.792Z,61.98
2019-05-14T02:51:10.787Z,62.02
2019-05-14T02:51:39.775Z,62.15
2019-05-14T02:52:10.722Z,62.01
2019-05-14T02:52:40.788Z,63.33
2019-05-14T02:53:10.719Z,63.68
2019-05-14T02:53:39.775Z,62.57
2019-05-14T02:54:10.723Z,62.29
2019-05-14T02:54:40.916Z,61.97
2019-05-14T02:55:10.735Z,61.98
2019-05-14T02:55:39.782Z,62.04
2019-05-14T02:56:10.723Z,61.73
2019-05-14T02:56:40.789Z,61.90
2019-05-14T02:57:11.765Z,61.90
2019-05-14T02:57:39.785Z,62.30
2019-05-14T02:58:14.485Z,62.30
2019-05-14T02:58:40.796Z,62.29
2019-05-14T02:59:10.743Z,61.89
2019-05-14T02:59:40.789Z,61.66
2019-05-14T03:00:13.122Z,61.77
2019-05-14T03:00:41.785Z,62.09
2019-05-14T03:01:10.730Z,62.26
2019-05-14T03:01:41.804Z,62.59
2019-05-14T03:02:10.735Z,62.68
2019-05-14T03:02:40.788Z,62.43
2019-05-14T03:03:10.723Z,62.39
2019-05-14T03:03:40.785Z,62.72
2019-05-14T03:04:09.713Z,63.19
2019-05-14T03:04:40.787Z,63.34
2019-05-14T03:05:10.724Z,63.41
2019-05-14T03:05:40.787Z,63.40
2019-05-14T03:06:10.728Z,63.61
2019-05-14T03:06:40.807Z,64.07
2019-05-14T03:07:11.732Z,64.12
2019-05-14T03:07:40.818Z,64.05
2019-05-14T03:08:09.720Z,64.04
2019-05-14T03:08:44.531Z,64.35
2019-05-14T03:09:10.727Z,64.20
2019-05-14T03:09:40.858Z,64.09
2019-05-14T03:10:10.729Z,64.06
2019-05-14T03:10:42.541Z,64.35
2019-05-14T03:11:10.732Z,64.70
2019-05-14T03:11:40.846Z,64.62
2019-05-14T03:12:10.736Z,64.65
2019-05-14T03:12:40.801Z,64.84
2019-05-14T03:13:10.740Z,65.02
2019-05-14T03:13:40.789Z,64.91
2019-05-14T03:14:09.725Z,64.99
2019-05-14T03:14:40.789Z,64.77
2019-05-14T03:15:10.725Z,65.13
2019-05-14T03:15:39.784Z,65.17
2019-05-14T03:16:25.784Z,65.19
2019-05-14T03:16:40.948Z,65.58
2019-05-14T03:17:11.737Z,65.41
2019-05-14T03:17:40.843Z,65.51
2019-05-14T03:18:09.722Z,65.52
2019-05-14T03:18:40.787Z,65.43
2019-05-14T03:19:13.130Z,65.88
2019-05-14T03:19:41.798Z,65.71
2019-05-14T03:20:09.725Z,65.75
2019-05-14T03:20:39.781Z,65.42
2019-05-14T03:21:12.139Z,65.52
2019-05-14T03:21:40.792Z,65.72
2019-05-14T03:22:10.734Z,65.62
2019-05-14T03:22:55.399Z,65.71
2019-05-14T03:23:17.720Z,65.61
2019-05-14T03:23:39.798Z,65.54
2019-05-14T03:24:10.741Z,65.44
2019-05-14T03:24:40.812Z,65.52
2019-05-14T03:25:10.766Z,65.77
2019-05-14T03:25:40.793Z,65.85
2019-05-14T03:26:10.739Z,65.81
2019-05-14T03:26:40.791Z,65.64
2019-05-14T03:27:10.736Z,65.50
2019-05-14T03:27:40.828Z,65.61
2019-05-14T03:28:09.729Z,65.22
2019-05-14T03:28:40.791Z,65.05
2019-05-14T03:29:10.745Z,65.28
2019-05-14T03:29:43.458Z,65.51
2019-05-14T03:30:13.235Z,65.28
2019-05-14T03:30:42.848Z,65.33
2019-05-14T03:31:12.993Z,65.59
2019-05-14T03:31:43.770Z,65.74
2019-05-14T03:32:13.354Z,65.75
2019-05-14T03:32:44.420Z,65.58
2019-05-14T03:33:13.578Z,65.53
2019-05-14T03:33:43.600Z,65.68
2019-05-14T03:34:13.284Z,65.51
2019-05-14T03:34:43.454Z,65.46
2019-05-14T03:35:13.859Z,65.66
2019-05-14T03:35:49.410Z,65.71
2019-05-14T03:36:17.571Z,65.61
2019-05-14T03:36:43.221Z,65.59
2019-05-14T03:37:13.275Z,65.71
2019-05-14T03:37:39.792Z,65.39
2019-05-14T03:38:10.729Z,65.31
2019-05-14T03:38:40.805Z,65.39
2019-05-14T03:39:10.823Z,65.39
2019-05-14T03:39:40.794Z,65.53
2019-05-14T03:40:13.396Z,65.55
2019-05-14T03:40:40.789Z,65.79
2019-05-14T03:41:14.018Z,65.94
2019-05-14T03:41:40.833Z,66.00
2019-05-14T03:42:12.398Z,66.09
2019-05-14T03:42:40.795Z,65.83
2019-05-14T03:43:09.735Z,65.89
2019-05-14T03:43:39.787Z,65.94
2019-05-14T03:44:10.774Z,65.85
2019-05-14T03:44:40.805Z,65.72
2019-05-14T03:45:09.735Z,65.55
2019-05-14T03:45:39.786Z,65.61
2019-05-14T03:46:10.734Z,65.60
2019-05-14T03:46:50.760Z,65.65
2019-05-14T03:47:11.737Z,65.80
2019-05-14T03:47:40.802Z,66.03
2019-05-14T03:48:10.787Z,66.22
2019-05-14T03:48:40.820Z,66.26
2019-05-14T03:49:09.723Z,66.59
2019-05-14T03:49:40.809Z,66.71
2019-05-14T03:50:10.733Z,66.43
2019-05-14T03:50:43.476Z,66.57
2019-05-14T03:51:09.722Z,66.71
2019-05-14T03:51:39.795Z,66.98
2019-05-14T03:52:10.730Z,66.93
2019-05-14T03:52:42.497Z,67.03
2019-05-14T03:53:10.953Z,66.90
2019-05-14T03:53:56.724Z,66.81
2019-05-14T03:54:12.865Z,66.99
2019-05-14T03:54:43.314Z,67.22
2019-05-14T03:55:10.738Z,67.72
2019-05-14T03:55:40.998Z,68.13
2019-05-14T03:56:10.747Z,68.51
2019-05-14T03:56:40.805Z,68.69
2019-05-14T03:57:10.751Z,68.87
2019-05-14T03:57:40.801Z,69.05
2019-05-14T03:58:10.740Z,69.20
2019-05-14T03:58:39.794Z,69.36
2019-05-14T03:59:10.790Z,69.45
2019-05-14T03:59:40.877Z,69.28
2019-05-14T04:00:10.742Z,69.47
2019-05-14T04:00:39.791Z,69.64
2019-05-14T04:01:13.146Z,69.79
2019-05-14T04:01:40.802Z,69.77
2019-05-14T04:02:10.773Z,69.69
2019-05-14T04:02:39.792Z,69.85
2019-05-14T04:03:12.153Z,70.06
2019-05-14T04:03:40.795Z,70.28
2019-05-14T04:04:10.746Z,70.16
2019-05-14T04:04:40.803Z,70.16
2019-05-14T04:05:10.765Z,70.25
2019-05-14T04:05:40.798Z,70.36
2019-05-14T04:06:10.738Z,70.44
2019-05-14T04:06:40.811Z,70.37
2019-05-14T04:07:10.737Z,69.96
2019-05-14T04:07:39.796Z,69.87
2019-05-14T04:08:10.753Z,69.96
2019-05-14T04:08:39.793Z,69.82
2019-05-14T04:09:10.736Z,69.73
2019-05-14T04:09:40.796Z,69.71
2019-05-14T04:10:10.742Z,69.51
2019-05-14T04:10:49.376Z,69.20
2019-05-14T04:11:10.763Z,69.12
2019-05-14T04:11:43.486Z,68.92
2019-05-14T04:12:10.738Z,68.93
2019-05-14T04:12:40.797Z,69.03
2019-05-14T04:13:09.742Z,68.91
2019-05-14T04:13:41.520Z,68.74
2019-05-14T04:14:10.751Z,68.77
2019-05-14T04:14:43.475Z,68.85
2019-05-14T04:15:10.743Z,68.44
2019-05-14T04:15:39.809Z,68.08
2019-05-14T04:16:09.739Z,67.86
2019-05-14T04:16:58.505Z,67.85
2019-05-14T04:17:15.292Z,67.69
2019-05-14T04:17:42.424Z,67.66
2019-05-14T04:18:09.737Z,67.55
2019-05-14T04:18:41.813Z,67.06
2019-05-14T04:19:10.741Z,66.70
2019-05-14T04:19:40.817Z,66.69
2019-05-14T04:20:10.776Z,66.63
2019-05-14T04:20:39.847Z,66.40
2019-05-14T04:21:10.743Z,66.28
2019-05-14T04:21:40.834Z,66.01
2019-05-14T04:22:13.155Z,65.95
2019-05-14T04:22:39.797Z,65.89
2019-05-14T04:23:09.733Z,65.76
2019-05-14T04:23:40.801Z,65.61
2019-05-14T04:24:11.160Z,65.56
2019-05-14T04:24:41.932Z,65.63
2019-05-14T04:25:15.136Z,65.39
2019-05-14T04:25:39.799Z,65.13
2019-05-14T04:26:09.735Z,64.88
2019-05-14T04:26:56.106Z,64.80
2019-05-14T04:27:13.107Z,64.63
2019-05-14T04:27:40.868Z,64.49
2019-05-14T04:28:10.750Z,64.44
2019-05-14T04:28:39.803Z,64.21
2019-05-14T04:29:10.755Z,64.25
2019-05-14T04:29:40.809Z,64.43
2019-05-14T04:30:10.758Z,64.54
2019-05-14T04:30:40.815Z,64.53
2019-05-14T04:31:10.749Z,64.45
2019-05-14T04:32:10.805Z,64.60
2019-05-14T04:32:43.309Z,64.50
2019-05-14T04:33:11.747Z,64.19
2019-05-14T04:33:39.799Z,64.18
2019-05-14T04:34:11.757Z,64.01
2019-05-14T04:34:41.277Z,64.29
2019-05-14T04:35:10.756Z,64.28
2019-05-14T04:35:45.290Z,64.35
2019-05-14T04:36:10.745Z,64.42
2019-05-14T04:37:10.743Z,63.62
2019-05-14T04:37:40.810Z,63.89
2019-05-14T04:38:10.741Z,64.08
2019-05-14T04:38:41.816Z,64.21
2019-05-14T04:39:10.744Z,64.34
2019-05-14T04:39:40.803Z,64.42
2019-05-14T04:40:10.754Z,64.44
2019-05-14T04:40:40.806Z,64.33
2019-05-14T04:41:10.795Z,64.47
2019-05-14T04:42:10.746Z,64.23
2019-05-14T04:42:40.805Z,63.99
2019-05-14T04:43:13.127Z,63.65
2019-05-14T04:43:40.806Z,63.49
2019-05-14T04:44:10.749Z,63.33
2019-05-14T04:44:40.864Z,63.20
2019-05-14T04:45:12.147Z,63.00
2019-05-14T04:45:40.816Z,62.77
2019-05-14T04:46:15.156Z,62.94
2019-05-14T04:46:40.810Z,62.64
2019-05-14T04:47:27.195Z,62.04
2019-05-14T04:47:42.520Z,61.89
2019-05-14T04:48:26.938Z,61.61
2019-05-14T04:48:43.799Z,61.13
2019-05-14T04:49:10.756Z,60.71
2019-05-14T04:49:40.819Z,60.03
2019-05-14T04:50:11.758Z,60.00
2019-05-14T04:50:40.976Z,60.22
2019-05-14T04:51:10.783Z,59.88
2019-05-14T04:51:40.812Z,59.98
2019-05-14T04:52:10.746Z,60.24
2019-05-14T04:52:41.037Z,61.00
2019-05-14T04:53:09.734Z,60.15
2019-05-14T04:53:43.254Z,60.39
2019-05-14T04:54:10.744Z,60.61
2019-05-14T04:54:40.892Z,59.62
2019-05-14T04:55:10.744Z,59.78
2019-05-14T04:55:41.389Z,60.02
2019-05-14T04:56:10.756Z,59.96
2019-05-14T04:56:45.108Z,60.04
2019-05-14T04:57:10.910Z,60.57
2019-05-14T04:57:40.810Z,59.17
2019-05-14T04:58:10.751Z,59.34
2019-05-14T04:58:41.821Z,60.48
2019-05-14T04:59:10.843Z,60.64
2019-05-14T04:59:40.823Z,59.93
2019-05-14T05:00:12.678Z,59.54
2019-05-14T05:00:39.807Z,58.61
2019-05-14T05:01:10.745Z,58.04
2019-05-14T05:01:40.809Z,57.15
2019-05-14T05:02:10.753Z,57.32
2019-05-14T05:02:40.825Z,58.31
2019-05-14T05:03:12.558Z,58.82
2019-05-14T05:03:40.829Z,58.40
2019-05-14T05:04:13.153Z,57.89
2019-05-14T05:04:41.833Z,57.51
2019-05-14T05:05:09.745Z,58.16
2019-05-14T05:05:39.812Z,58.61
2019-05-14T05:06:11.171Z,59.02
2019-05-14T05:06:40.812Z,57.92
2019-05-14T05:07:15.179Z,57.35
2019-05-14T05:07:40.881Z,57.96
2019-05-14T05:08:14.293Z,58.59
2019-05-14T05:08:40.813Z,58.53
2019-05-14T05:09:10.752Z,58.44
2019-05-14T05:09:40.806Z,57.76
2019-05-14T05:10:10.767Z,56.94
2019-05-14T05:10:40.808Z,56.73
2019-05-14T05:11:10.820Z,57.25
2019-05-14T05:11:40.820Z,57.33
2019-05-14T05:12:09.757Z,57.49
2019-05-14T05:12:39.801Z,57.23
2019-05-14T05:13:09.751Z,56.38
2019-05-14T05:13:40.819Z,56.55
2019-05-14T05:14:43.292Z,57.39
2019-05-14T05:15:10.782Z,57.09
2019-05-14T05:15:39.811Z,57.58
2019-05-14T05:16:10.773Z,57.88
2019-05-14T05:16:41.116Z,57.93
2019-05-14T05:17:09.758Z,58.40
2019-05-14T05:17:49.539Z,58.79
2019-05-14T05:18:10.759Z,58.77
2019-05-14T05:18:40.813Z,59.41
2019-05-14T05:19:10.767Z,59.02
2019-05-14T05:19:45.316Z,58.19
2019-05-14T05:20:10.757Z,58.76
2019-05-14T05:20:39.804Z,59.04
2019-05-14T05:21:09.750Z,58.35
2019-05-14T05:21:39.806Z,57.64
2019-05-14T05:22:09.742Z,57.60
2019-05-14T05:22:40.823Z,57.76
2019-05-14T05:23:09.742Z,58.56
2019-05-14T05:23:39.804Z,59.76
2019-05-14T05:24:09.744Z,59.95
2019-05-14T05:24:39.802Z,59.76
2019-05-14T05:25:13.129Z,59.61
2019-05-14T05:25:39.812Z,59.93
2019-05-14T05:26:09.751Z,59.73
2019-05-14T05:26:39.813Z,60.02
2019-05-14T05:27:11.144Z,59.99
2019-05-14T05:27:39.806Z,60.29
2019-05-14T05:28:09.792Z,60.83
2019-05-14T05:28:39.814Z,60.51
2019-05-14T05:29:10.754Z,60.45
2019-05-14T05:29:39.808Z,60.40
2019-05-14T05:30:09.751Z,61.13
2019-05-14T05:30:39.839Z,60.35
2019-05-14T05:31:09.750Z,60.77
2019-05-14T05:31:39.809Z,60.34
2019-05-14T05:32:09.756Z,59.94
2019-05-14T05:32:39.814Z,59.72
2019-05-14T05:33:09.757Z,60.08
2019-05-14T05:33:39.811Z,59.57
2019-05-14T05:34:09.752Z,60.12
2019-05-14T05:34:39.811Z,60.59
2019-05-14T05:35:10.775Z,59.69
2019-05-14T05:35:43.256Z,59.47
2019-05-14T05:36:10.756Z,59.83
2019-05-14T05:36:39.811Z,60.48
2019-05-14T05:37:09.757Z,60.28
2019-05-14T05:37:41.257Z,61.13
2019-05-14T05:38:09.776Z,61.15
2019-05-14T05:38:43.239Z,60.75
2019-05-14T05:39:09.748Z,60.81
2019-05-14T05:39:39.812Z,60.42
2019-05-14T05:40:09.746Z,61.00
2019-05-14T05:40:39.810Z,60.25
2019-05-14T05:41:09.750Z,60.37
2019-05-14T05:41:39.812Z,60.71
2019-05-14T05:42:09.746Z,60.77
2019-05-14T05:42:39.812Z,61.11
2019-05-14T05:43:09.746Z,62.04
2019-05-14T05:43:39.865Z,61.73
2019-05-14T05:44:09.746Z,62.32
2019-05-14T05:44:39.813Z,61.97
2019-05-14T05:45:09.755Z,61.68
2019-05-14T05:45:39.814Z,61.28
2019-05-14T05:46:13.138Z,61.09
2019-05-14T05:46:43.241Z,61.22
2019-05-14T05:47:09.754Z,61.42
2019-05-14T05:47:54.331Z,60.78
2019-05-14T05:48:11.148Z,60.41
2019-05-14T05:48:39.816Z,60.44
2019-05-14T05:49:09.758Z,61.43
2019-05-14T05:49:39.809Z,61.19
2019-05-14T05:50:09.783Z,62.07
2019-05-14T05:50:39.824Z,61.92
2019-05-14T05:51:09.750Z,60.69
2019-05-14T05:51:39.820Z,60.58
2019-05-14T05:52:09.757Z,60.38
2019-05-14T05:52:39.812Z,60.10
2019-05-14T05:53:09.758Z,59.25
2019-05-14T05:53:39.817Z,59.54
2019-05-14T05:54:09.751Z,59.06
2019-05-14T05:54:39.813Z,58.48
2019-05-14T05:55:09.752Z,58.09
2019-05-14T05:55:39.822Z,57.79
2019-05-14T05:56:09.791Z,57.82
2019-05-14T05:56:43.254Z,57.79
2019-05-14T05:57:09.748Z,57.70
2019-05-14T05:57:39.819Z,57.71
2019-05-14T05:58:09.758Z,57.43
2019-05-14T05:58:41.118Z,57.25
2019-05-14T05:59:10.779Z,57.52
2019-05-14T05:59:39.817Z,57.40
2019-05-14T06:00:09.755Z,56.58
2019-05-14T06:00:40.822Z,56.56
2019-05-14T06:01:10.765Z,56.65
2019-05-14T06:01:46.200Z,56.40
2019-05-14T06:02:09.757Z,56.30
2019-05-14T06:02:40.823Z,55.34
2019-05-14T06:03:10.985Z,55.12
2019-05-14T06:03:39.815Z,54.61
2019-05-14T06:04:09.759Z,54.93
2019-05-14T06:04:39.816Z,54.60
2019-05-14T06:05:09.764Z,54.70
2019-05-14T06:05:39.815Z,54.37
2019-05-14T06:06:13.345Z,54.27
2019-05-14T06:06:39.819Z,54.39
2019-05-14T06:07:12.232Z,53.92
2019-05-14T06:07:40.955Z,53.66
2019-05-14T06:08:09.761Z,53.39
2019-05-14T06:08:39.824Z,53.30
2019-05-14T06:09:11.239Z,52.94
2019-05-14T06:09:39.840Z,52.98
2019-05-14T06:10:09.747Z,52.95
2019-05-14T06:10:40.824Z,52.67
2019-05-14T06:11:09.756Z,52.17
2019-05-14T06:11:39.815Z,52.53
2019-05-14T06:12:09.763Z,52.63
2019-05-14T06:12:39.828Z,52.60
2019-05-14T06:13:09.757Z,52.54
2019-05-14T06:13:39.965Z,52.92
2019-05-14T06:14:09.757Z,52.77
2019-05-14T06:14:39.817Z,53.50
2019-05-14T06:15:09.763Z,53.36
2019-05-14T06:15:47.644Z,53.51
2019-05-14T06:16:10.765Z,54.00
2019-05-14T06:16:39.818Z,53.21
2019-05-14T06:17:09.775Z,52.56
2019-05-14T06:17:42.342Z,52.83
2019-05-14T06:18:17.949Z,53.18
2019-05-14T06:18:39.821Z,52.83
2019-05-14T06:19:09.760Z,51.71
2019-05-14T06:19:41.390Z,51.71
2019-05-14T06:20:09.765Z,51.73
2019-05-14T06:20:39.825Z,51.72
2019-05-14T06:21:09.755Z,52.27
2019-05-14T06:21:40.825Z,52.00
2019-05-14T06:22:10.773Z,51.35
2019-05-14T06:22:39.817Z,51.35
2019-05-14T06:23:09.761Z,51.42
2019-05-14T06:23:39.827Z,52.84
2019-05-14T06:24:09.759Z,53.30
2019-05-14T06:24:39.823Z,52.65
2019-05-14T06:25:11.502Z,52.15
2019-05-14T06:25:40.829Z,51.87
2019-05-14T06:26:11.679Z,51.90
2019-05-14T06:26:39.818Z,52.38
2019-05-14T06:27:09.755Z,52.99
2019-05-14T06:27:39.825Z,53.38
2019-05-14T06:28:12.453Z,53.95